sensor_id;sensor_type;location;lat;lon;timestamp;temperature;humidity
6373;DHT22;3219;51.362;7.074;2023-06-22T00:01:12;22.00;99.90
6373;DHT22;3219;51.362;7.074;2023-06-22T00:03:39;21.90;99.90
6373;DHT22;3219;51.362;7.074;2023-06-22T00:06:06;21.90;99.90
6373;DHT22;3219;51.362;7.074;2023-06-22T00:08:33;21.80;99.90
6373;DHT22;3219;51.362;7.074;2023-06-22T00:11:01;21.70;99.90
6373;DHT22;3219;51.362;7.074;2023-06-22T00:13:27;21.70;99.90
6373;DHT22;3219;51.362;7.074;2023-06-22T00:15:54;21.70;99.90
6373;DHT22;3219;51.362;7.074;2023-06-22T00:18:21;21.60;99.90
6373;DHT22;3219;51.362;7.074;2023-06-22T00:20:48;21.50;99.90
6373;DHT22;3219;51.362;7.074;2023-06-22T00:23:14;21.50;99.90
6373;DHT22;3219;51.362;7.074;2023-06-22T00:25:42;21.60;99.90
6373;DHT22;3219;51.362;7.074;2023-06-22T00:28:11;21.60;99.90
6373;DHT22;3219;51.362;7.074;2023-06-22T00:30:37;21.60;99.90
6373;DHT22;3219;51.362;7.074;2023-06-22T00:33:04;21.50;99.90
6373;DHT22;3219;51.362;7.074;2023-06-22T00:35:33;21.40;99.90
6373;DHT22;3219;51.362;7.074;2023-06-22T00:38:01;21.50;99.90
6373;DHT22;3219;51.362;7.074;2023-06-22T00:40:29;21.40;99.90
6373;DHT22;3219;51.362;7.074;2023-06-22T00:42:56;21.40;99.90
6373;DHT22;3219;51.362;7.074;2023-06-22T00:45:25;21.40;99.90
6373;DHT22;3219;51.362;7.074;2023-06-22T00:47:52;21.40;99.90
6373;DHT22;3219;51.362;7.074;2023-06-22T00:50:20;21.40;99.90
6373;DHT22;3219;51.362;7.074;2023-06-22T00:52:49;21.40;99.90
6373;DHT22;3219;51.362;7.074;2023-06-22T00:55:18;21.30;99.90
6373;DHT22;3219;51.362;7.074;2023-06-22T00:57:45;21.30;99.90
6373;DHT22;3219;51.362;7.074;2023-06-22T01:00:13;21.30;99.90
6373;DHT22;3219;51.362;7.074;2023-06-22T01:02:43;21.30;99.90
6373;DHT22;3219;51.362;7.074;2023-06-22T01:05:12;21.30;99.90
6373;DHT22;3219;51.362;7.074;2023-06-22T01:07:44;21.20;99.90
6373;DHT22;3219;51.362;7.074;2023-06-22T01:10:16;21.20;99.90
6373;DHT22;3219;51.362;7.074;2023-06-22T01:12:50;21.20;99.90
6373;DHT22;3219;51.362;7.074;2023-06-22T01:15:23;21.30;99.90
6373;DHT22;3219;51.362;7.074;2023-06-22T01:17:53;21.20;99.90
6373;DHT22;3219;51.362;7.074;2023-06-22T01:20:22;21.30;99.90
6373;DHT22;3219;51.362;7.074;2023-06-22T01:23:05;21.30;99.90
6373;DHT22;3219;51.362;7.074;2023-06-22T01:25:38;21.30;99.90
6373;DHT22;3219;51.362;7.074;2023-06-22T01:28:29;21.30;99.90
6373;DHT22;3219;51.362;7.074;2023-06-22T01:30:57;21.20;99.90
6373;DHT22;3219;51.362;7.074;2023-06-22T01:33:33;21.20;99.90
6373;DHT22;3219;51.362;7.074;2023-06-22T01:36:01;21.20;99.90
6373;DHT22;3219;51.362;7.074;2023-06-22T01:38:28;21.20;99.90
6373;DHT22;3219;51.362;7.074;2023-06-22T01:40:56;21.20;99.90
6373;DHT22;3219;51.362;7.074;2023-06-22T01:43:25;21.20;99.90
6373;DHT22;3219;51.362;7.074;2023-06-22T01:45:55;21.10;99.90
6373;DHT22;3219;51.362;7.074;2023-06-22T01:48:22;21.20;99.90
6373;DHT22;3219;51.362;7.074;2023-06-22T01:50:51;21.10;99.90
6373;DHT22;3219;51.362;7.074;2023-06-22T01:55:46;21.00;99.90
6373;DHT22;3219;51.362;7.074;2023-06-22T02:00:44;21.00;99.90
6373;DHT22;3219;51.362;7.074;2023-06-22T02:03:18;21.10;99.90
6373;DHT22;3219;51.362;7.074;2023-06-22T02:05:49;21.00;99.90
6373;DHT22;3219;51.362;7.074;2023-06-22T02:10:48;21.00;99.90
6373;DHT22;3219;51.362;7.074;2023-06-22T02:13:15;21.10;99.90
6373;DHT22;3219;51.362;7.074;2023-06-22T02:15:42;21.10;99.90
6373;DHT22;3219;51.362;7.074;2023-06-22T02:20:38;21.00;99.90
6373;DHT22;3219;51.362;7.074;2023-06-22T02:32:56;21.00;99.90
6373;DHT22;3219;51.362;7.074;2023-06-22T02:35:25;21.20;99.90
6373;DHT22;3219;51.362;7.074;2023-06-22T02:37:53;21.00;99.90
6373;DHT22;3219;51.362;7.074;2023-06-22T02:40:20;20.90;99.90
6373;DHT22;3219;51.362;7.074;2023-06-22T02:42:47;20.90;99.90
6373;DHT22;3219;51.362;7.074;2023-06-22T02:45:13;20.90;99.90
6373;DHT22;3219;51.362;7.074;2023-06-22T02:47:40;20.80;99.90
6373;DHT22;3219;51.362;7.074;2023-06-22T02:50:08;20.80;99.90
6373;DHT22;3219;51.362;7.074;2023-06-22T02:52:35;20.70;99.90
6373;DHT22;3219;51.362;7.074;2023-06-22T02:55:03;20.80;99.90
6373;DHT22;3219;51.362;7.074;2023-06-22T02:57:30;20.70;99.90
6373;DHT22;3219;51.362;7.074;2023-06-22T02:59:57;20.70;99.90
6373;DHT22;3219;51.362;7.074;2023-06-22T03:02:23;20.70;99.90
6373;DHT22;3219;51.362;7.074;2023-06-22T03:04:51;20.40;99.90
6373;DHT22;3219;51.362;7.074;2023-06-22T03:07:19;20.70;99.90
6373;DHT22;3219;51.362;7.074;2023-06-22T03:09:45;20.90;99.90
6373;DHT22;3219;51.362;7.074;2023-06-22T03:12:14;20.70;99.90
6373;DHT22;3219;51.362;7.074;2023-06-22T03:14:40;20.70;99.90
6373;DHT22;3219;51.362;7.074;2023-06-22T03:17:07;20.70;99.90
6373;DHT22;3219;51.362;7.074;2023-06-22T03:19:34;20.70;99.90
6373;DHT22;3219;51.362;7.074;2023-06-22T03:26:56;20.70;99.90
6373;DHT22;3219;51.362;7.074;2023-06-22T03:29:24;20.70;99.90
6373;DHT22;3219;51.362;7.074;2023-06-22T03:31:51;20.60;99.90
6373;DHT22;3219;51.362;7.074;2023-06-22T03:34:18;20.60;99.90
6373;DHT22;3219;51.362;7.074;2023-06-22T03:36:45;20.50;99.90
6373;DHT22;3219;51.362;7.074;2023-06-22T03:39:12;20.50;99.90
6373;DHT22;3219;51.362;7.074;2023-06-22T03:41:38;20.50;99.90
6373;DHT22;3219;51.362;7.074;2023-06-22T03:44:05;20.40;99.90
6373;DHT22;3219;51.362;7.074;2023-06-22T03:46:33;20.40;99.90
6373;DHT22;3219;51.362;7.074;2023-06-22T03:49:00;20.30;99.90
6373;DHT22;3219;51.362;7.074;2023-06-22T03:51:28;20.40;99.90
6373;DHT22;3219;51.362;7.074;2023-06-22T03:53:55;20.40;99.90
6373;DHT22;3219;51.362;7.074;2023-06-22T03:56:22;20.30;99.90
6373;DHT22;3219;51.362;7.074;2023-06-22T03:58:49;20.40;99.90
6373;DHT22;3219;51.362;7.074;2023-06-22T04:01:16;20.30;99.90
6373;DHT22;3219;51.362;7.074;2023-06-22T04:03:44;20.40;99.90
6373;DHT22;3219;51.362;7.074;2023-06-22T04:06:13;20.40;99.90
6373;DHT22;3219;51.362;7.074;2023-06-22T04:08:40;20.40;99.90
6373;DHT22;3219;51.362;7.074;2023-06-22T04:11:07;20.30;99.90
6373;DHT22;3219;51.362;7.074;2023-06-22T04:13:34;20.30;99.90
6373;DHT22;3219;51.362;7.074;2023-06-22T04:16:00;20.40;99.90
6373;DHT22;3219;51.362;7.074;2023-06-22T04:18:27;20.40;99.90
6373;DHT22;3219;51.362;7.074;2023-06-22T04:23:23;20.40;99.90
6373;DHT22;3219;51.362;7.074;2023-06-22T04:35:45;20.30;99.90
6373;DHT22;3219;51.362;7.074;2023-06-22T04:38:13;20.40;99.90
6373;DHT22;3219;51.362;7.074;2023-06-22T04:45:35;20.40;99.90
6373;DHT22;3219;51.362;7.074;2023-06-22T04:48:04;20.40;99.90
6373;DHT22;3219;51.362;7.074;2023-06-22T04:50:30;20.40;99.90
6373;DHT22;3219;51.362;7.074;2023-06-22T04:52:59;20.20;99.90
6373;DHT22;3219;51.362;7.074;2023-06-22T05:03:03;20.10;99.90
6373;DHT22;3219;51.362;7.074;2023-06-22T05:05:38;20.20;99.90
6373;DHT22;3219;51.362;7.074;2023-06-22T05:08:07;20.10;99.90
6373;DHT22;3219;51.362;7.074;2023-06-22T05:18:04;20.10;99.90
6373;DHT22;3219;51.362;7.074;2023-06-22T05:20:33;20.00;99.90
6373;DHT22;3219;51.362;7.074;2023-06-22T05:25:31;20.10;99.90
6373;DHT22;3219;51.362;7.074;2023-06-22T05:30:32;20.10;99.90
6373;DHT22;3219;51.362;7.074;2023-06-22T05:33:00;20.40;99.90
6373;DHT22;3219;51.362;7.074;2023-06-22T05:35:29;20.10;99.90
6373;DHT22;3219;51.362;7.074;2023-06-22T05:37:58;20.30;99.90
6373;DHT22;3219;51.362;7.074;2023-06-22T05:40:27;20.10;99.90
6373;DHT22;3219;51.362;7.074;2023-06-22T05:42:55;20.10;99.90
6373;DHT22;3219;51.362;7.074;2023-06-22T05:45:24;20.20;99.90
6373;DHT22;3219;51.362;7.074;2023-06-22T05:47:54;20.20;99.90
6373;DHT22;3219;51.362;7.074;2023-06-22T05:50:23;20.20;99.90
6373;DHT22;3219;51.362;7.074;2023-06-22T05:52:52;20.20;99.90
6373;DHT22;3219;51.362;7.074;2023-06-22T05:57:49;20.40;99.90
6373;DHT22;3219;51.362;7.074;2023-06-22T06:00:17;20.50;99.90
6373;DHT22;3219;51.362;7.074;2023-06-22T06:05:18;20.40;99.90
6373;DHT22;3219;51.362;7.074;2023-06-22T06:10:16;20.40;99.90
6373;DHT22;3219;51.362;7.074;2023-06-22T06:12:45;20.70;99.90
6373;DHT22;3219;51.362;7.074;2023-06-22T06:15:14;20.20;99.90
6373;DHT22;3219;51.362;7.074;2023-06-22T06:17:47;20.30;99.90
6373;DHT22;3219;51.362;7.074;2023-06-22T06:20:18;20.40;99.90
6373;DHT22;3219;51.362;7.074;2023-06-22T06:22:47;20.40;99.90
6373;DHT22;3219;51.362;7.074;2023-06-22T06:25:16;20.40;99.90
6373;DHT22;3219;51.362;7.074;2023-06-22T06:27:48;20.30;99.90
6373;DHT22;3219;51.362;7.074;2023-06-22T06:30:19;20.40;99.90
6373;DHT22;3219;51.362;7.074;2023-06-22T06:32:49;20.50;99.90
6373;DHT22;3219;51.362;7.074;2023-06-22T06:35:19;20.50;99.90
6373;DHT22;3219;51.362;7.074;2023-06-22T06:37:50;20.40;99.90
6373;DHT22;3219;51.362;7.074;2023-06-22T06:40:19;20.50;99.90
6373;DHT22;3219;51.362;7.074;2023-06-22T06:45:19;20.60;99.90
6373;DHT22;3219;51.362;7.074;2023-06-22T06:52:52;20.70;99.90
6373;DHT22;3219;51.362;7.074;2023-06-22T06:55:20;20.70;99.90
6373;DHT22;3219;51.362;7.074;2023-06-22T06:57:52;20.60;99.90
6373;DHT22;3219;51.362;7.074;2023-06-22T07:02:51;20.70;99.90
6373;DHT22;3219;51.362;7.074;2023-06-22T07:10:22;20.70;99.90
6373;DHT22;3219;51.362;7.074;2023-06-22T08:27:29;21.10;99.90
6373;DHT22;3219;51.362;7.074;2023-06-22T08:29:57;21.30;99.90
6373;DHT22;3219;51.362;7.074;2023-06-22T08:32:24;21.30;99.90
6373;DHT22;3219;51.362;7.074;2023-06-22T08:34:53;21.30;99.90
6373;DHT22;3219;51.362;7.074;2023-06-22T08:37:20;21.30;99.90
6373;DHT22;3219;51.362;7.074;2023-06-22T08:39:50;21.30;99.90
6373;DHT22;3219;51.362;7.074;2023-06-22T08:42:17;21.30;99.90
6373;DHT22;3219;51.362;7.074;2023-06-22T09:51:41;25.40;99.90
6373;DHT22;3219;51.362;7.074;2023-06-22T09:54:08;25.50;99.90
6373;DHT22;3219;51.362;7.074;2023-06-22T09:56:35;25.30;99.90
6373;DHT22;3219;51.362;7.074;2023-06-22T09:59:03;25.30;99.90
6373;DHT22;3219;51.362;7.074;2023-06-22T10:21:21;25.30;99.90
6373;DHT22;3219;51.362;7.074;2023-06-22T10:23:48;25.30;99.90
6373;DHT22;3219;51.362;7.074;2023-06-22T10:26:14;25.30;99.90
6373;DHT22;3219;51.362;7.074;2023-06-22T10:28:41;25.40;99.90
6373;DHT22;3219;51.362;7.074;2023-06-22T10:31:08;25.60;99.90
6373;DHT22;3219;51.362;7.074;2023-06-22T10:33:35;25.80;99.90
6373;DHT22;3219;51.362;7.074;2023-06-22T10:36:03;26.00;99.90
6373;DHT22;3219;51.362;7.074;2023-06-22T12:20:05;22.60;99.90
6373;DHT22;3219;51.362;7.074;2023-06-22T12:22:34;22.70;99.90
6373;DHT22;3219;51.362;7.074;2023-06-22T12:25:01;22.60;99.90
6373;DHT22;3219;51.362;7.074;2023-06-22T12:32:28;22.00;99.90
6373;DHT22;3219;51.362;7.074;2023-06-22T20:17:58;18.80;99.90
6373;DHT22;3219;51.362;7.074;2023-06-22T20:20:28;18.80;99.90
6373;DHT22;3219;51.362;7.074;2023-06-22T20:22:59;18.60;99.90
6373;DHT22;3219;51.362;7.074;2023-06-22T20:25:28;18.60;99.90
6373;DHT22;3219;51.362;7.074;2023-06-22T20:27:55;18.50;99.90
6373;DHT22;3219;51.362;7.074;2023-06-22T20:30:23;18.50;99.90
6373;DHT22;3219;51.362;7.074;2023-06-22T20:55:06;17.90;99.90
6373;DHT22;3219;51.362;7.074;2023-06-22T20:57:33;18.00;99.90
6373;DHT22;3219;51.362;7.074;2023-06-22T21:00:01;17.90;99.90
